Council Bluffs, Iowa
Current Conditions -  °F | °C
As of 7:52 AM on Friday 31 Oct 2014 (Local Time) from KOMA Reporting Station
Clear Clear  
Wind Chill: 17°   Ceiling: Unl
Heat Index: 28°   Visibility: 10mi
Dew Point: 21°   Wind: 14mph
Humidity: 75%   Direction: 340°NNW
Pressure: 30.55"   Gusts: NA
Location:  41.26°N, 95.85°W
Report Text: KOMA 311252Z 34012KT 10SM CLR M02/M06 A3055 RMK AO2 SLP352 T10221061
Loading
Personal Weather Stations






























Interactive Weather Map
Tropical Storm Tracking
New forecast layout! Learn more

10-Day Weather Forecast

Advertisements
Track Severe Weather on mobile